< < Back
Terminal Aerodrome Forecast


Current Version              Previous Versions:   1  2  3  4  5  6  7  8  9  

Terminal Aerodrome Forecast

012
FTUS42 KFFC 241938 AAA
TAFPDK
TAF AMD
KPDK 241938Z 2420/2518 26006KT P6SM SCT070
     FM250000 22003KT P6SM FEW250
     FM251500 25005KT P6SM FEW050
     FM251700 22007KT P6SM SCT060=



Latest METAR

858
SAUS70 KWBC 251956
MTRPDK
METAR KPDK 251953Z 16006KT 10SM CLR 31/12 A3019 RMK AO2 SLP209
T03060122


USA.gov is the U.S. government's official web portal to all federal, state and local government web resources and services.